Time;durP1;ratioP1;P1;durP2;ratioP2;P2;SDS_P1;SDS_P2;PMS_P1;PMS_P2;Temp;Humidity;BMP_temperature;BMP_pressure;BME280_temperature;BME280_humidity;BME280_pressure;Samples;Min_cycle;Max_cycle;Signal;HPM_P1;HPM_P2
2023/02/23 00:01:20;;;;;;;23.40;15.45;;;;;;;7.53;80.27;97975.13;7392999;19;19922;-78
2023/02/23 00:03:48;;;;;;;21.42;14.23;;;;;;;7.53;80.35;97981.25;7390282;19;19929;-79
2023/02/23 00:06:16;;;;;;;20.67;14.43;;;;;;;7.60;80.41;97979.66;7393370;19;19919;-79
2023/02/23 00:08:43;;;;;;;22.65;13.25;;;;;;;7.63;80.53;97983.81;7388128;19;20398;-79
2023/02/23 00:11:13;;;;;;;23.30;13.70;;;;;;;7.67;80.40;97986.00;7387484;19;19926;-78
2023/02/23 00:13:41;;;;;;;21.42;14.25;;;;;;;7.72;80.61;97976.84;7387634;19;19922;-79
2023/02/23 00:16:19;;;;;;;20.95;13.57;;;;;;;7.76;80.26;97979.03;7391393;19;19938;-78
2023/02/23 00:18:52;;;;;;;21.08;14.25;;;;;;;7.81;80.38;97974.16;7388547;19;19918;-79
2023/02/23 00:21:24;;;;;;;20.60;14.23;;;;;;;7.86;80.00;97976.34;7392071;19;19915;-77
2023/02/23 00:24:17;;;;;;;20.98;14.30;;;;;;;7.90;80.15;97969.81;7393272;19;19922;-79
2023/02/23 00:26:46;;;;;;;22.42;15.48;;;;;;;7.96;80.02;97977.13;7388843;19;20367;-79
2023/02/23 00:29:16;;;;;;;23.73;16.25;;;;;;;7.98;79.86;97964.63;7391016;19;19919;-79
2023/02/23 00:31:46;;;;;;;21.10;15.70;;;;;;;7.96;80.12;97963.13;7385638;19;19919;-79
2023/02/23 00:34:20;;;;;;;20.05;14.48;;;;;;;8.01;79.93;97960.88;7385002;19;19986;-79
2023/02/23 00:36:53;;;;;;;23.02;14.80;;;;;;;8.03;79.83;97966.78;7382207;19;19933;-80
2023/02/23 00:39:22;;;;;;;22.45;15.60;;;;;;;8.05;79.79;97964.84;7387527;19;19915;-78
2023/02/23 00:41:51;;;;;;;20.85;14.32;;;;;;;8.08;79.73;97957.50;7383364;19;19914;-79
2023/02/23 00:44:19;;;;;;;20.95;14.68;;;;;;;8.09;79.81;97963.59;7389396;19;19923;-79
2023/02/23 00:46:50;;;;;;;21.92;14.82;;;;;;;7.95;80.43;97970.16;7381188;19;19914;-79
2023/02/23 00:49:19;;;;;;;19.70;14.50;;;;;;;7.97;80.38;97967.41;7388781;19;19914;-79
2023/02/23 00:51:45;;;;;;;24.10;15.23;;;;;;;7.81;81.53;97968.88;7383612;19;19926;-79
2023/02/23 00:54:13;;;;;;;27.83;16.30;;;;;;;7.75;82.29;97972.13;7386517;19;19914;-79
2023/02/23 00:56:40;;;;;;;24.88;17.42;;;;;;;7.72;82.70;97974.22;7387640;19;19922;-79
2023/02/23 00:59:07;;;;;;;23.65;14.82;;;;;;;7.72;82.48;97975.06;7389073;19;19918;-79
2023/02/23 01:01:34;;;;;;;23.30;16.10;;;;;;;7.68;82.35;97973.66;7393311;19;19922;-79
2023/02/23 01:04:00;;;;;;;23.10;15.73;;;;;;;7.58;83.29;97970.25;7391936;19;19969;-79
2023/02/23 01:06:29;;;;;;;24.83;16.27;;;;;;;7.51;84.11;97963.94;7393086;19;20302;-79
2023/02/23 01:08:56;;;;;;;25.38;17.98;;;;;;;7.40;84.83;97960.53;7393953;19;19941;-79
2023/02/23 01:11:26;;;;;;;24.20;16.25;;;;;;;7.37;85.20;97962.59;7396924;19;19933;-80
2023/02/23 01:13:57;;;;;;;28.33;17.27;;;;;;;7.30;85.84;97965.00;7392345;19;19943;-79
2023/02/23 01:16:26;;;;;;;23.15;16.30;;;;;;;7.31;85.93;97966.66;7393719;19;19922;-80
2023/02/23 01:18:55;;;;;;;26.33;17.92;;;;;;;7.20;86.56;97966.84;7392019;19;19925;-79
2023/02/23 01:21:24;;;;;;;24.77;18.75;;;;;;;7.15;86.81;97971.69;7395917;19;19996;-78
2023/02/23 01:23:52;;;;;;;27.08;17.35;;;;;;;7.13;86.74;97957.84;7398078;19;19935;-79
2023/02/23 01:26:23;;;;;;;23.30;15.93;;;;;;;7.16;86.54;97961.06;7398209;19;19925;-80
2023/02/23 01:28:57;;;;;;;23.05;16.40;;;;;;;7.19;86.42;97962.56;7395436;19;19926;-80
2023/02/23 01:31:24;;;;;;;25.38;16.85;;;;;;;7.17;86.26;97972.41;7400277;19;19922;-79
2023/02/23 01:33:55;;;;;;;26.95;16.30;;;;;;;7.17;86.39;97967.13;7393842;19;19922;-79
2023/02/23 01:36:24;;;;;;;26.73;17.02;;;;;;;7.17;86.47;97967.97;7394064;19;19918;-80
2023/02/23 01:38:55;;;;;;;22.40;16.05;;;;;;;7.24;86.33;97970.81;7398265;19;19914;-80
2023/02/23 01:41:22;;;;;;;22.77;15.55;;;;;;;7.26;86.25;97961.00;7400011;19;19914;-79
2023/02/23 01:44:11;;;;;;;25.90;16.77;;;;;;;7.26;86.34;97968.88;7394973;19;20280;-80
2023/02/23 01:46:40;;;;;;;26.05;16.83;;;;;;;7.29;86.58;97960.69;7394485;19;19910;-79
2023/02/23 01:49:14;;;;;;;22.88;16.60;;;;;;;7.30;86.38;97957.09;7396328;19;19923;-80
2023/02/23 01:51:50;;;;;;;25.98;15.93;;;;;;;7.32;86.66;97955.16;7393101;19;19961;-80
2023/02/23 01:54:23;;;;;;;23.88;16.33;;;;;;;7.34;86.42;97957.63;7392408;19;19923;-80
2023/02/23 01:56:56;;;;;;;26.63;16.35;;;;;;;7.36;86.44;97953.88;7394322;19;19915;-79
2023/02/23 01:59:32;;;;;;;24.92;15.88;;;;;;;7.38;86.55;97954.56;7396654;19;19946;-80
2023/02/23 02:01:59;;;;;;;23.55;16.02;;;;;;;7.36;86.90;97953.88;7391976;19;19922;-79
2023/02/23 02:04:27;;;;;;;24.67;16.35;;;;;;;7.29;86.96;97949.34;7394819;19;19926;-80
2023/02/23 02:07:00;;;;;;;23.73;16.60;;;;;;;7.31;86.82;97950.88;7393301;19;19978;-79
2023/02/23 02:09:28;;;;;;;30.10;17.60;;;;;;;7.31;86.76;97947.41;7391345;19;20268;-80
2023/02/23 02:12:01;;;;;;;26.85;18.05;;;;;;;7.33;86.81;97950.72;7388403;19;19915;-80
2023/02/23 02:14:29;;;;;;;27.70;17.67;;;;;;;7.36;86.81;97945.16;7396717;19;20521;-80
2023/02/23 02:17:06;;;;;;;30.13;17.48;;;;;;;7.37;87.11;97939.78;7394919;19;19918;-79
2023/02/23 02:19:32;;;;;;;25.38;17.35;;;;;;;7.39;87.12;97943.06;7396441;19;19932;-82
2023/02/23 02:22:13;;;;;;;27.27;17.48;;;;;;;7.40;87.07;97938.66;7398154;19;20359;-81
2023/02/23 02:24:53;;;;;;;28.13;19.60;;;;;;;7.39;87.46;97940.44;7400014;19;19924;-80
2023/02/23 02:27:37;;;;;;;26.92;18.80;;;;;;;7.40;87.54;97938.66;7395779;19;20347;-80
2023/02/23 02:30:26;;;;;;;24.48;16.98;;;;;;;7.40;87.55;97942.09;7395882;19;19918;-80
2023/02/23 02:33:33;;;;;;;25.75;16.80;;;;;;;7.36;87.68;97940.72;7396635;19;19925;-82
2023/02/23 02:36:25;;;;;;;27.65;18.23;;;;;;;7.29;87.95;97939.66;7396312;19;19926;-80
2023/02/23 02:39:33;;;;;;;26.63;17.40;;;;;;;7.23;88.66;97937.59;7395434;19;19926;-79
2023/02/23 02:42:20;;;;;;;27.85;17.38;;;;;;;7.22;88.50;97938.59;7390854;19;19914;-80
2023/02/23 02:45:14;;;;;;;25.95;16.02;;;;;;;7.21;88.44;97935.13;7389769;19;20347;-81
2023/02/23 02:48:06;;;;;;;23.65;16.02;;;;;;;7.21;88.44;97932.50;7392782;19;20248;-80
2023/02/23 02:50:45;;;;;;;25.88;15.73;;;;;;;7.23;88.46;97937.59;7393210;19;19942;-80
2023/02/23 02:53:19;;;;;;;28.17;18.23;;;;;;;7.21;88.42;97929.88;7396629;19;20335;-79
2023/02/23 02:55:47;;;;;;;27.75;17.35;;;;;;;7.24;88.63;97928.72;7391807;19;20343;-78
2023/02/23 02:58:14;;;;;;;22.35;16.10;;;;;;;7.25;88.36;97933.84;7394993;19;19927;-81
2023/02/23 04:19:13;;;;;;;25.10;17.13;;;;;;;7.31;90.29;97932.44;7402867;19;19926;-80
2023/02/23 04:21:40;;;;;;;26.88;17.42;;;;;;;7.34;90.29;97933.94;7403784;19;19920;-79
2023/02/23 04:24:08;;;;;;;29.70;19.00;;;;;;;7.32;90.09;97931.47;7406349;19;20399;-79
2023/02/23 04:26:35;;;;;;;28.38;17.90;;;;;;;7.34;89.90;97936.59;7405985;19;19918;-80
2023/02/23 04:29:01;;;;;;;28.27;18.88;;;;;;;7.34;90.16;97932.16;7404191;19;19934;-79
2023/02/23 04:31:28;;;;;;;29.08;17.20;;;;;;;7.36;89.88;97942.53;7408254;19;19919;-80
2023/02/23 04:33:55;;;;;;;26.77;16.58;;;;;;;7.35;89.97;97933.81;7409012;19;19933;-80
2023/02/23 04:36:23;;;;;;;28.75;18.65;;;;;;;7.36;89.99;97938.09;7413022;19;19950;-80
2023/02/23 04:38:49;;;;;;;31.15;19.55;;;;;;;7.35;90.04;97935.63;7407531;19;19938;-79
2023/02/23 04:41:16;;;;;;;30.13;18.83;;;;;;;7.36;90.13;97943.38;7406385;19;19910;-81
2023/02/23 04:43:43;;;;;;;31.02;18.83;;;;;;;7.38;89.91;97940.59;7398363;19;19915;-80
2023/02/23 04:46:10;;;;;;;26.38;17.20;;;;;;;7.37;90.03;97934.50;7395669;19;19919;-80
2023/02/23 04:48:37;;;;;;;26.67;18.83;;;;;;;7.38;89.93;97938.78;7401871;19;19928;-79
2023/02/23 04:51:03;;;;;;;28.08;18.55;;;;;;;7.40;90.15;97939.47;7396787;19;19919;-81
2023/02/23 04:53:30;;;;;;;28.63;18.70;;;;;;;7.34;90.38;97932.16;7398509;19;19950;-80
2023/02/23 04:55:57;;;;;;;27.02;18.50;;;;;;;7.37;90.17;97945.03;7393532;19;19934;-80
2023/02/23 04:58:23;;;;;;;27.75;18.08;;;;;;;7.38;90.07;97940.59;7393274;19;19923;-80
2023/02/23 05:00:50;;;;;;;27.70;18.15;;;;;;;7.35;90.39;97939.09;7390472;19;19934;-81
2023/02/23 05:03:16;;;;;;;28.65;18.40;;;;;;;7.37;90.13;97947.66;7399682;19;19918;-80
2023/02/23 05:05:44;;;;;;;28.40;18.75;;;;;;;7.36;90.20;97938.09;7397935;19;19914;-78
2023/02/23 05:08:10;;;;;;;28.10;17.70;;;;;;;7.38;90.27;97944.06;7394545;19;19922;-80
2023/02/23 05:10:37;;;;;;;27.80;16.50;;;;;;;7.38;90.09;97940.59;7397890;19;19915;-80
2023/02/23 05:13:05;;;;;;;28.90;17.40;;;;;;;7.38;90.30;97935.34;7395105;19;20019;-79
2023/02/23 05:15:32;;;;;;;27.27;16.70;;;;;;;7.38;90.36;97941.41;7392768;19;19910;-80
2023/02/23 05:17:59;;;;;;;28.65;18.83;;;;;;;7.34;90.46;97940.03;7396270;19;19918;-80
2023/02/23 05:20:26;;;;;;;29.95;19.65;;;;;;;7.23;91.24;97938.44;7401379;19;19914;-79
2023/02/23 05:22:53;;;;;;;28.15;18.15;;;;;;;7.24;91.08;97934.00;7395183;19;20210;-80
2023/02/23 05:25:19;;;;;;;30.90;19.45;;;;;;;7.21;91.19;97939.53;7398147;19;19938;-79
2023/02/23 05:27:46;;;;;;;32.53;16.85;;;;;;;7.24;91.39;97940.09;7398075;19;19917;-79
2023/02/23 05:30:13;;;;;;;30.45;17.63;;;;;;;7.26;91.31;97937.31;7395073;19;20360;-79
2023/02/23 05:32:39;;;;;;;28.85;19.33;;;;;;;7.29;91.11;97937.00;7396023;19;19954;-79
2023/02/23 05:35:07;;;;;;;29.42;18.67;;;;;;;7.30;90.90;97938.69;7392685;19;19918;-79
2023/02/23 05:37:36;;;;;;;31.70;18.50;;;;;;;7.31;90.90;97935.06;7399369;19;19926;-80
2023/02/23 05:40:03;;;;;;;27.48;16.50;;;;;;;7.34;90.83;97944.47;7395317;19;19919;-79
2023/02/23 05:42:30;;;;;;;26.00;16.70;;;;;;;7.36;90.86;97943.38;7395520;19;20374;-80
2023/02/23 05:44:56;;;;;;;27.52;16.58;;;;;;;7.38;90.89;97948.50;7389963;19;20314;-79
2023/02/23 05:47:23;;;;;;;31.13;18.67;;;;;;;7.31;91.08;97950.88;7391961;19;19926;-79
2023/02/23 05:49:50;;;;;;;31.63;21.08;;;;;;;7.25;91.27;97940.94;7390076;19;20329;-80
2023/02/23 05:52:16;;;;;;;26.73;17.95;;;;;;;7.30;91.33;97948.41;7393445;19;19918;-79
2023/02/23 05:54:44;;;;;;;29.85;18.10;;;;;;;7.30;91.29;97949.22;7398133;19;20276;-79
2023/02/23 05:57:11;;;;;;;30.98;18.33;;;;;;;7.29;91.48;97947.53;7391977;19;19918;-78
2023/02/23 05:59:37;;;;;;;33.45;18.90;;;;;;;7.29;91.32;97951.97;7393503;19;19946;-78
2023/02/23 06:02:04;;;;;;;29.95;18.42;;;;;;;7.30;91.25;97949.22;7388698;19;20036;-79
2023/02/23 06:04:32;;;;;;;33.40;20.40;;;;;;;7.33;91.14;97950.72;7386323;19;19923;-80
2023/02/23 06:06:58;;;;;;;29.92;18.63;;;;;;;7.35;91.31;97944.34;7385676;19;19915;-78
2023/02/23 06:09:25;;;;;;;36.42;21.20;;;;;;;7.37;91.33;97949.44;7386171;19;19923;-79
2023/02/23 06:11:52;;;;;;;33.47;22.05;;;;;;;7.30;91.50;97953.66;7386226;19;19947;-79
2023/02/23 06:14:18;;;;;;;33.47;21.25;;;;;;;7.27;91.90;97954.78;7392230;19;20343;-79
2023/02/23 06:16:47;;;;;;;32.03;20.55;;;;;;;7.29;91.98;97952.81;7385663;19;19922;-79
2023/02/23 06:19:14;;;;;;;33.25;19.95;;;;;;;7.34;91.80;97955.81;7392967;19;20358;-79
2023/02/23 06:21:41;;;;;;;34.22;19.95;;;;;;;7.38;91.74;97959.00;7390177;19;19959;-79
2023/02/23 06:24:11;;;;;;;29.63;18.08;;;;;;;7.39;91.56;97958.84;7385427;19;19926;-79
2023/02/23 06:26:38;;;;;;;28.23;19.23;;;;;;;7.43;91.47;97965.50;7391370;19;19914;-80
2023/02/23 06:29:04;;;;;;;32.22;18.63;;;;;;;7.44;91.61;97961.88;7382567;19;20725;-78
2023/02/23 06:31:31;;;;;;;31.40;22.40;;;;;;;7.46;91.55;97959.94;7389043;19;20347;-78
2023/02/23 06:33:58;;;;;;;27.33;17.73;;;;;;;7.50;91.39;97964.91;7387001;19;19930;-80
2023/02/23 06:36:26;;;;;;;27.90;17.92;;;;;;;7.48;91.47;97967.69;7387743;19;19942;-81
2023/02/23 06:38:58;;;;;;;32.42;18.60;;;;;;;7.48;91.30;97968.53;7382455;19;19918;-80
2023/02/23 06:41:25;;;;;;;30.80;19.80;;;;;;;7.47;91.33;97972.09;7388304;19;19915;-80
2023/02/23 06:43:52;;;;;;;31.50;18.77;;;;;;;7.46;91.40;97967.84;7387335;19;19954;-79
2023/02/23 06:46:18;;;;;;;32.28;18.48;;;;;;;7.46;91.59;97969.63;7387880;19;19922;-79
2023/02/23 06:48:45;;;;;;;32.17;19.10;;;;;;;7.45;91.54;97968.81;7391357;19;19936;-80
2023/02/23 06:51:12;;;;;;;30.52;19.83;;;;;;;7.45;91.55;97973.22;7384993;19;20340;-80
2023/02/23 06:53:39;;;;;;;32.45;20.73;;;;;;;7.48;91.50;97980.84;7387448;19;19907;-78
2023/02/23 06:56:06;;;;;;;30.25;20.15;;;;;;;7.52;91.38;97981.38;7386665;19;19911;-81
2023/02/23 06:58:37;;;;;;;29.75;19.25;;;;;;;7.50;91.20;97981.53;7398663;19;19919;-80
2023/02/23 07:01:04;;;;;;;33.67;21.75;;;;;;;7.53;91.44;97980.41;7391017;19;19914;-80
2023/02/23 07:03:31;;;;;;;34.42;20.50;;;;;;;7.53;91.17;97988.28;7392416;19;19915;-80
2023/02/23 07:05:57;;;;;;;32.85;20.90;;;;;;;7.56;91.27;97986.22;7387561;19;19919;-80
2023/02/23 07:08:24;;;;;;;30.48;18.58;;;;;;;7.58;91.32;97988.69;7395345;19;19930;-78
2023/02/23 07:10:52;;;;;;;31.55;18.92;;;;;;;7.59;91.28;97990.38;7394682;19;19914;-79
2023/02/23 07:13:20;;;;;;;29.48;19.33;;;;;;;7.58;91.36;97993.94;7393769;19;19922;-78
2023/02/23 07:15:47;;;;;;;31.83;19.75;;;;;;;7.60;91.26;97994.66;7403495;19;19951;-79
2023/02/23 07:18:15;;;;;;;29.08;19.23;;;;;;;7.64;91.33;97990.75;7398383;19;19914;-79
2023/02/23 07:20:41;;;;;;;30.10;21.00;;;;;;;7.65;91.36;98000.31;7397793;19;19941;-79
2023/02/23 07:23:08;;;;;;;29.90;19.98;;;;;;;7.67;91.52;97998.34;7396886;19;19927;-80
2023/02/23 07:25:35;;;;;;;29.52;19.67;;;;;;;7.69;91.46;98001.69;7397050;19;19922;-79
2023/02/23 07:28:01;;;;;;;35.10;19.73;;;;;;;7.70;91.60;98009.41;7397643;19;19910;-79
2023/02/23 07:30:28;;;;;;;29.02;19.23;;;;;;;7.75;91.52;98011.63;7398184;19;19922;-80
2023/02/23 07:32:55;;;;;;;29.42;18.88;;;;;;;7.75;91.24;98011.63;7394703;19;19930;-79
2023/02/23 07:35:21;;;;;;;33.42;20.30;;;;;;;7.76;91.37;98023.78;7398377;19;19943;-79
2023/02/23 07:37:48;;;;;;;29.25;19.00;;;;;;;7.78;91.81;98011.31;7400170;19;20390;-79
2023/02/23 07:40:16;;;;;;;30.58;20.98;;;;;;;7.86;91.77;98008.78;7401788;19;19915;-79
2023/02/23 07:42:43;;;;;;;29.77;19.73;;;;;;;7.99;91.93;98007.59;7401453;19;19918;-79
2023/02/23 07:45:10;;;;;;;31.33;19.65;;;;;;;8.10;92.05;98007.38;7389271;19;19937;-80
2023/02/23 07:47:38;;;;;;;34.08;20.40;;;;;;;8.16;91.96;98004.13;7393803;19;20353;-80
2023/02/23 07:50:09;;;;;;;33.78;20.00;;;;;;;8.20;91.94;98009.97;7390871;19;19939;-79
2023/02/23 07:52:36;;;;;;;30.98;19.05;;;;;;;8.24;91.58;98012.16;7390924;19;19918;-79
2023/02/23 07:55:04;;;;;;;33.47;19.17;;;;;;;8.29;91.67;98009.91;7389539;19;19922;-80
2023/02/23 07:57:33;;;;;;;30.35;19.67;;;;;;;8.34;91.24;98009.44;7393186;19;20002;-79
2023/02/23 08:00:00;;;;;;;29.15;19.20;;;;;;;8.35;90.79;98014.56;7384791;19;19919;-80
2023/02/23 08:02:38;;;;;;;27.77;19.83;;;;;;;8.41;90.61;98021.06;7390493;19;20007;-79
2023/02/23 08:05:05;;;;;;;31.05;19.83;;;;;;;8.41;90.98;98017.59;7384971;19;20264;-81
2023/02/23 08:07:34;;;;;;;38.42;22.27;;;;;;;8.41;90.75;98020.25;7390216;19;19942;-79
2023/02/23 08:10:00;;;;;;;34.05;19.95;;;;;;;8.35;90.34;98027.75;7388251;19;19929;-79
2023/02/23 08:12:27;;;;;;;28.08;19.17;;;;;;;8.33;90.22;98026.22;7391777;19;19918;-80
2023/02/23 08:14:54;;;;;;;31.02;19.90;;;;;;;8.35;90.31;98025.09;7386417;19;19931;-80
2023/02/23 08:17:20;;;;;;;34.00;20.70;;;;;;;8.44;90.23;98017.28;7388860;19;19922;-79
2023/02/23 08:19:48;;;;;;;31.20;19.52;;;;;;;8.57;90.53;98023.03;7394234;19;19922;-80
2023/02/23 08:22:15;;;;;;;30.98;19.02;;;;;;;8.66;90.43;98019.50;7390739;19;19923;-81
2023/02/23 08:24:42;;;;;;;55.53;28.35;;;;;;;8.74;90.31;98023.97;7389730;19;19928;-79
2023/02/23 08:27:09;;;;;;;39.92;24.77;;;;;;;8.92;90.10;98029.22;7390266;19;19922;-79
2023/02/23 08:29:36;;;;;;;27.00;17.50;;;;;;;9.01;90.22;98028.31;7393428;19;20244;-79
2023/02/23 08:32:03;;;;;;;32.38;20.85;;;;;;;8.92;90.45;98027.41;7388900;19;20254;-81
2023/02/23 08:34:30;;;;;;;29.00;17.23;;;;;;;8.99;89.51;98025.00;7390620;19;19922;-79
2023/02/23 08:36:57;;;;;;;27.10;18.63;;;;;;;9.05;89.39;98028.81;7391765;19;19918;-80
2023/02/23 08:39:24;;;;;;;27.60;18.42;;;;;;;9.13;89.18;98023.59;7389560;19;19926;-79
2023/02/23 08:41:54;;;;;;;31.95;19.13;;;;;;;9.18;88.83;98023.97;7389380;19;19927;-81
2023/02/23 08:44:22;;;;;;;28.33;18.45;;;;;;;9.19;88.37;98018.53;7392703;19;19974;-80
2023/02/23 08:46:52;;;;;;;28.88;19.27;;;;;;;9.14;88.31;98026.09;7387570;19;19974;-79
2023/02/23 08:49:19;;;;;;;34.83;19.30;;;;;;;9.13;88.70;98027.06;7391616;19;20328;-79
2023/02/23 08:51:46;;;;;;;37.88;23.70;;;;;;;9.20;88.81;98025.47;7390017;19;19934;-80
2023/02/23 08:54:15;;;;;;;23.70;17.45;;;;;;;9.29;89.02;98028.16;7383147;19;19922;-80
2023/02/23 08:56:42;;;;;;;27.73;17.70;;;;;;;9.36;88.42;98031.84;7384703;19;19929;-80
2023/02/23 08:59:10;;;;;;;24.90;16.90;;;;;;;9.43;88.67;98033.69;7387361;19;19937;-81
2023/02/23 09:01:37;;;;;;;24.30;17.15;;;;;;;9.54;88.56;98037.06;7396339;19;19919;-79
2023/02/23 09:04:04;;;;;;;25.98;16.52;;;;;;;9.61;88.39;98035.41;7407707;19;19918;-80
2023/02/23 09:06:31;;;;;;;25.83;16.05;;;;;;;9.68;88.18;98037.25;7408383;19;19942;-80
2023/02/23 09:08:58;;;;;;;28.13;17.48;;;;;;;9.75;88.00;98042.75;7400168;19;19931;-80
2023/02/23 09:11:25;;;;;;;23.95;15.13;;;;;;;9.86;87.63;98041.66;7401371;19;19922;-80
2023/02/23 09:13:51;;;;;;;22.55;15.13;;;;;;;9.94;87.68;98041.66;7387628;19;19918;-81
2023/02/23 09:16:18;;;;;;;41.70;23.67;;;;;;;9.94;86.85;98043.50;7389263;19;19907;-79
2023/02/23 09:18:45;;;;;;;30.75;19.48;;;;;;;9.92;86.62;98043.63;7397916;19;19926;-80
2023/02/23 09:21:24;;;;;;;21.23;14.80;;;;;;;9.97;86.56;98046.63;7400836;19;19919;-80
2023/02/23 09:23:54;;;;;;;24.00;14.43;;;;;;;10.04;86.19;98046.84;7417847;19;19918;-80
2023/02/23 09:26:22;;;;;;;;;;;;;;;10.01;85.41;98044.53;7425101;19;19948;-81
2023/02/23 09:28:49;;;;;;;18.98;14.68;;;;;;;10.02;85.09;98040.88;7422708;19;19941;-80
2023/02/23 09:31:20;;;;;;;20.58;14.00;;;;;;;10.00;84.68;98043.66;7421483;19;19915;-80
2023/02/23 09:33:48;;;;;;;31.60;17.52;;;;;;;10.03;85.29;98042.53;7419585;19;19923;-79
2023/02/23 09:36:21;;;;;;;29.77;17.42;;;;;;;10.11;85.48;98040.75;7420951;19;19942;-79
2023/02/23 09:38:55;;;;;;;18.52;12.68;;;;;;;10.11;85.01;98040.75;7418737;19;19917;-80
2023/02/23 09:41:24;;;;;;;16.73;11.55;;;;;;;10.07;85.44;98036.75;7408888;19;19914;-80
2023/02/23 09:44:00;;;;;;;;;;;;;;;10.11;85.71;98037.28;7383566;19;19961;-80
2023/02/23 09:46:37;;;;;;;14.13;10.35;;;;;;;10.29;85.20;98032.72;7363322;19;19922;-80
2023/02/23 09:49:07;;;;;;;16.75;10.98;;;;;;;10.32;85.11;98042.13;7374150;19;19915;-80
2023/02/23 09:51:37;;;;;;;18.73;12.45;;;;;;;10.54;84.65;98036.22;7394491;19;20552;-78
2023/02/23 09:54:05;;;;;;;23.05;15.50;;;;;;;10.64;83.68;98035.25;7386578;19;19974;-80
2023/02/23 09:56:37;;;;;;;21.00;12.60;;;;;;;10.54;83.53;98038.06;7394617;19;19914;-80
2023/02/23 09:59:06;;;;;;;15.40;10.27;;;;;;;10.67;83.00;98037.56;7390305;19;19935;-79
2023/02/23 10:01:48;;;;;;;16.60;11.10;;;;;;;10.76;82.30;98032.09;7394045;19;20335;-80
2023/02/23 10:04:38;;;;;;;18.58;11.07;;;;;;;10.65;82.67;98028.97;7389930;19;19914;-79
2023/02/23 10:07:25;;;;;;;19.45;11.52;;;;;;;10.69;83.04;98032.91;7390875;19;19925;-79
2023/02/23 10:09:52;;;;;;;16.15;11.50;;;;;;;10.78;83.34;98037.25;7390087;19;19911;-79
2023/02/23 10:12:28;;;;;;;15.73;10.50;;;;;;;10.93;82.58;98030.28;7398912;19;19918;-79
2023/02/23 10:14:58;;;;;;;16.50;11.68;;;;;;;11.11;82.64;98032.75;7396737;19;19925;-79
2023/02/23 10:17:54;;;;;;;14.55;9.40;;;;;;;11.27;80.56;98039.00;7401807;19;19910;-79
2023/02/23 10:20:29;;;;;;;13.50;10.18;;;;;;;11.28;80.51;98033.56;7396493;19;20367;-78
2023/02/23 10:23:02;;;;;;;15.07;9.55;;;;;;;11.34;79.92;98032.88;7397112;19;19923;-79
2023/02/23 10:25:34;;;;;;;13.75;9.55;;;;;;;11.48;80.55;98030.53;7399609;19;19922;-79
2023/02/23 10:28:01;;;;;;;15.10;12.73;;;;;;;11.56;80.13;98033.16;7396489;19;19934;-79
2023/02/23 10:30:30;;;;;;;15.18;10.18;;;;;;;11.69;79.32;98036.09;7398667;19;19914;-79
2023/02/23 10:33:13;;;;;;;13.18;8.85;;;;;;;11.82;79.39;98027.59;7395917;19;19915;-79
2023/02/23 10:35:39;;;;;;;11.30;8.07;;;;;;;12.13;78.86;98024.16;7398064;19;19911;-79
2023/02/23 10:38:13;;;;;;;17.00;11.68;;;;;;;12.51;76.55;98025.94;7391562;19;19957;-78
2023/02/23 10:40:40;;;;;;;14.27;9.43;;;;;;;12.47;75.97;98029.91;7397099;19;19918;-79
2023/02/23 10:43:10;;;;;;;10.88;8.13;;;;;;;12.56;76.48;98032.50;7394427;19;19919;-78
2023/02/23 10:45:44;;;;;;;11.52;8.90;;;;;;;12.57;77.03;98031.53;7395039;19;19943;-78
2023/02/23 10:48:18;;;;;;;12.75;8.63;;;;;;;12.32;76.28;98033.50;7394981;19;19915;-79
2023/02/23 10:50:48;;;;;;;14.75;9.27;;;;;;;12.41;75.96;98043.09;7398077;19;19958;-79
2023/02/23 10:53:34;;;;;;;14.40;10.80;;;;;;;12.37;76.52;98039.09;7391246;19;19926;-79
2023/02/23 10:56:12;;;;;;;16.75;9.00;;;;;;;12.45;77.42;98037.25;7392176;19;19931;-79
2023/02/23 10:58:47;;;;;;;11.75;8.30;;;;;;;12.65;76.34;98042.91;7395465;19;19922;-79
2023/02/23 11:01:24;;;;;;;10.60;8.05;;;;;;;12.71;76.38;98036.88;7392169;19;19929;-78
2023/02/23 11:03:52;;;;;;;12.70;8.20;;;;;;;12.74;76.55;98041.00;7392889;19;19911;-78
2023/02/23 11:06:41;;;;;;;9.75;7.28;;;;;;;12.82;75.73;98026.84;7394918;19;20304;-79
2023/02/23 11:09:24;;;;;;;11.52;6.60;;;;;;;12.96;75.29;98029.56;7389629;19;19941;-79
2023/02/23 11:12:36;;;;;;;8.63;6.65;;;;;;;13.04;73.65;98025.19;7394123;19;19954;-79
2023/02/23 11:15:24;;;;;;;12.02;6.65;;;;;;;13.21;72.95;98031.16;7393905;19;19925;-78
2023/02/23 11:18:05;;;;;;;9.38;6.38;;;;;;;13.26;71.70;98023.47;7395075;19;19919;-78
2023/02/23 11:20:35;;;;;;;8.85;6.25;;;;;;;13.25;71.93;98025.31;7393513;19;20287;-79
2023/02/23 11:23:09;;;;;;;14.25;6.97;;;;;;;13.05;73.08;98022.34;7394531;19;19922;-77
2023/02/23 11:25:42;;;;;;;9.40;6.68;;;;;;;13.16;72.84;98018.41;7391653;19;20352;-78
2023/02/23 11:28:26;;;;;;;9.32;6.57;;;;;;;13.17;72.73;98018.25;7386518;19;19932;-78
2023/02/23 11:30:53;;;;;;;10.45;6.55;;;;;;;13.28;71.93;98013.53;7388354;19;19961;-78
2023/02/23 11:33:24;;;;;;;9.77;6.65;;;;;;;13.46;73.07;98014.00;7390343;19;19923;-79
2023/02/23 11:35:58;;;;;;;8.93;5.70;;;;;;;13.69;71.23;98002.44;7388653;19;19918;-78
2023/02/23 11:38:27;;;;;;;9.15;6.15;;;;;;;13.89;70.01;98002.69;7394902;19;19994;-78
2023/02/23 11:41:00;;;;;;;10.57;5.32;;;;;;;14.00;69.78;97996.88;7390313;19;19929;-80
2023/02/23 11:43:27;;;;;;;12.27;6.13;;;;;;;14.18;70.14;97991.16;7387424;19;19948;-80
2023/02/23 11:45:57;;;;;;;8.40;5.68;;;;;;;14.05;68.05;98002.47;7390602;19;19947;-80
2023/02/23 11:48:47;;;;;;;8.65;5.50;;;;;;;14.11;68.11;98003.56;7393037;19;19927;-79
2023/02/23 11:51:23;;;;;;;12.40;6.47;;;;;;;14.05;69.34;97991.84;7385698;19;19915;-79
2023/02/23 11:53:49;;;;;;;8.52;5.25;;;;;;;14.27;68.40;97987.38;7389413;19;19958;-79
2023/02/23 11:56:24;;;;;;;7.80;5.82;;;;;;;14.27;68.77;97979.41;7389933;19;19923;-79
2023/02/23 11:59:06;;;;;;;7.50;5.15;;;;;;;14.36;68.38;97980.91;7389456;19;19943;-79
2023/02/23 12:01:43;;;;;;;10.77;5.90;;;;;;;14.45;66.46;97982.44;7390327;19;19938;-79
2023/02/23 12:04:23;;;;;;;6.72;4.90;;;;;;;14.13;66.39;97977.59;7399228;19;19922;-79
2023/02/23 12:06:51;;;;;;;8.73;5.40;;;;;;;13.50;67.98;97975.41;7415190;19;19914;-79
2023/02/23 12:09:27;;;;;;;9.95;5.78;;;;;;;13.61;68.08;97974.97;7411943;19;19974;-79
2023/02/23 12:12:08;;;;;;;9.68;6.15;;;;;;;14.01;69.46;97970.13;7416033;19;19910;-79
2023/02/23 12:14:48;;;;;;;5.57;4.13;;;;;;;14.48;65.28;97968.75;7414080;19;19937;-78
2023/02/23 12:17:20;;;;;;;8.80;4.78;;;;;;;14.75;64.21;97961.03;7415572;19;19927;-78
2023/02/23 12:19:48;;;;;;;6.80;3.78;;;;;;;14.99;64.44;97965.13;7421594;19;19914;-79
2023/02/23 12:22:21;;;;;;;8.43;3.95;;;;;;;15.11;62.74;97958.25;7418228;19;19906;-78
2023/02/23 12:24:52;;;;;;;7.50;4.30;;;;;;;15.08;62.00;97955.13;7420134;19;19918;-78
2023/02/23 12:27:30;;;;;;;6.43;4.65;;;;;;;15.06;63.25;97952.66;7398221;19;19942;-79
2023/02/23 12:30:16;;;;;;;8.32;3.75;;;;;;;14.81;60.93;97957.59;7390606;19;19915;-78
2023/02/23 12:33:01;;;;;;;4.47;3.17;;;;;;;14.69;62.24;97954.66;7387689;19;20394;-77
2023/02/23 12:35:35;;;;;;;5.07;3.65;;;;;;;14.56;62.99;97957.19;7392795;19;19918;-77
2023/02/23 12:38:11;;;;;;;6.05;3.40;;;;;;;14.61;64.15;97949.47;7392448;19;20344;-77
2023/02/23 12:40:40;;;;;;;7.57;4.00;;;;;;;14.65;64.87;97955.22;7391858;19;19914;-78
2023/02/23 12:43:24;;;;;;;5.05;4.18;;;;;;;14.75;63.93;97945.06;7389101;19;19914;-78
2023/02/23 12:45:51;;;;;;;5.70;3.80;;;;;;;14.94;62.99;97946.22;7391209;19;19918;-77
2023/02/23 12:48:33;;;;;;;13.07;3.95;;;;;;;14.82;62.34;97950.44;7392882;19;20296;-78
2023/02/23 12:51:02;;;;;;;7.40;4.18;;;;;;;14.77;62.15;97944.84;7382437;19;19959;-77
2023/02/23 12:53:40;;;;;;;7.63;4.18;;;;;;;14.59;62.74;97942.69;7387794;19;19926;-77
2023/02/23 12:56:42;;;;;;;7.25;4.95;;;;;;;14.74;65.77;97945.25;7387473;19;19931;-77
2023/02/23 12:59:28;;;;;;;8.32;4.72;;;;;;;14.72;64.46;97937.47;7388410;19;19960;-78
2023/02/23 13:02:00;;;;;;;10.93;5.05;;;;;;;14.54;64.44;97937.94;7398264;19;19923;-77
2023/02/23 13:04:55;;;;;;;8.60;5.63;;;;;;;14.49;65.76;97935.81;7389778;19;19952;-79